createdAt,value
2018-06-15T00:01:17.628Z,8.63
2018-06-15T00:03:48.777Z,7.53
2018-06-15T00:06:20.487Z,8.20
2018-06-15T00:08:52.552Z,8.90
2018-06-15T00:11:24.353Z,9.17
2018-06-15T00:13:56.072Z,8.90
2018-06-15T00:16:27.710Z,10.07
2018-06-15T00:18:59.305Z,8.63
2018-06-15T00:21:30.804Z,9.23
2018-06-15T00:24:02.241Z,11.67
2018-06-15T00:26:33.730Z,10.83
2018-06-15T00:29:05.554Z,10.40
2018-06-15T00:31:36.750Z,8.87
2018-06-15T00:34:08.052Z,10.00
2018-06-15T00:36:39.962Z,9.83
2018-06-15T00:39:13.054Z,11.03
2018-06-15T00:41:45.453Z,10.83
2018-06-15T00:44:17.007Z,10.43
2018-06-15T00:46:48.654Z,9.03
2018-06-15T00:49:27.028Z,9.70
2018-06-15T00:51:58.534Z,10.27
2018-06-15T00:54:35.214Z,8.90
2018-06-15T00:57:28.856Z,10.70
2018-06-15T01:00:03.212Z,9.70
2018-06-15T01:02:34.884Z,11.10
2018-06-15T01:05:06.510Z,9.70
2018-06-15T01:07:38.051Z,10.93
2018-06-15T01:10:09.464Z,10.23
2018-06-15T01:12:40.977Z,9.50
2018-06-15T01:15:12.416Z,11.43
2018-06-15T01:17:44.341Z,11.13
2018-06-15T01:20:21.165Z,11.33
2018-06-15T01:22:57.953Z,11.03
2018-06-15T01:25:34.845Z,10.60
2018-06-15T01:28:06.668Z,10.90
2018-06-15T01:30:38.265Z,12.83
2018-06-15T01:33:09.746Z,10.60
2018-06-15T01:35:41.326Z,10.93
2018-06-15T01:38:13.592Z,10.13
2018-06-15T01:40:45.534Z,12.27
2018-06-15T01:43:17.098Z,11.70
2018-06-15T01:45:48.664Z,11.77
2018-06-15T01:48:20.127Z,11.13
2018-06-15T01:50:51.618Z,10.50
2018-06-15T01:53:23.329Z,11.10
2018-06-15T01:55:55.313Z,11.23
2018-06-15T01:58:26.774Z,11.60
2018-06-15T02:00:58.271Z,11.00
2018-06-15T02:03:30.013Z,11.10
2018-06-15T02:06:01.503Z,12.10
2018-06-15T02:08:33.336Z,12.90
2018-06-15T02:11:05.081Z,12.80
2018-06-15T02:13:36.903Z,12.13
2018-06-15T02:16:08.419Z,11.97
2018-06-15T02:18:40.047Z,12.57
2018-06-15T02:21:13.456Z,12.50
2018-06-15T02:23:44.917Z,13.70
2018-06-15T02:26:16.478Z,12.73
2018-06-15T02:28:48.017Z,11.87
2018-06-15T02:31:19.528Z,13.37
2018-06-15T02:33:51.001Z,13.27
2018-06-15T02:36:22.456Z,12.73
2018-06-15T02:38:54.348Z,14.30
2018-06-15T02:41:25.769Z,12.23
2018-06-15T02:43:57.324Z,13.50
2018-06-15T02:46:28.796Z,12.30
2018-06-15T02:49:00.507Z,13.50
2018-06-15T02:51:32.078Z,11.67
2018-06-15T02:54:03.782Z,13.17
2018-06-15T02:56:35.172Z,13.70
2018-06-15T02:59:06.606Z,12.20
2018-06-15T03:01:38.339Z,12.97
2018-06-15T03:04:09.829Z,13.77
2018-06-15T03:06:41.421Z,13.10
2018-06-15T03:09:13.129Z,13.20
2018-06-15T03:11:44.573Z,12.73
2018-06-15T03:14:15.679Z,12.53
2018-06-15T03:16:47.425Z,13.13
2018-06-15T03:19:18.838Z,13.57
2018-06-15T03:21:50.289Z,15.10
2018-06-15T03:24:21.920Z,14.10
2018-06-15T03:26:53.666Z,14.83
2018-06-15T03:29:25.178Z,14.17
2018-06-15T03:31:56.998Z,16.90
2018-06-15T03:34:28.591Z,15.83
2018-06-15T03:37:00.144Z,13.77
2018-06-15T03:39:31.927Z,15.60
2018-06-15T03:42:03.349Z,14.40
2018-06-15T03:44:34.981Z,16.13
2018-06-15T03:47:06.684Z,15.27
2018-06-15T03:49:38.225Z,14.27
2018-06-15T03:52:09.764Z,14.90
2018-06-15T03:54:41.349Z,15.07
2018-06-15T03:57:12.883Z,16.87
2018-06-15T03:59:45.172Z,15.83
2018-06-15T04:02:17.173Z,14.10
2018-06-15T04:04:48.653Z,16.60
2018-06-15T04:07:20.184Z,15.33
2018-06-15T04:09:51.909Z,15.80
2018-06-15T04:12:23.433Z,15.20
2018-06-15T04:14:55.026Z,14.90
2018-06-15T04:17:26.889Z,15.80
2018-06-15T04:19:58.526Z,15.27
2018-06-15T04:22:30.119Z,15.43
2018-06-15T04:25:01.640Z,15.77
2018-06-15T04:27:33.344Z,16.80
2018-06-15T04:30:05.321Z,16.23
2018-06-15T04:32:36.886Z,16.37
2018-06-15T04:35:08.370Z,17.03
2018-06-15T04:37:39.984Z,15.67
2018-06-15T04:40:11.913Z,15.80
2018-06-15T04:42:43.861Z,16.20
2018-06-15T04:45:15.337Z,18.77
2018-06-15T04:47:46.974Z,17.63
2018-06-15T04:50:18.648Z,18.23
2018-06-15T04:52:50.973Z,18.37
2018-06-15T04:55:22.594Z,17.30
2018-06-15T04:57:54.065Z,19.10
2018-06-15T05:00:25.590Z,16.77
2018-06-15T05:02:57.102Z,17.77
2018-06-15T05:05:28.601Z,18.47
2018-06-15T05:08:00.155Z,18.27
2018-06-15T05:10:32.349Z,19.33
2018-06-15T05:13:03.954Z,18.93
2018-06-15T05:15:35.541Z,20.53
2018-06-15T05:18:07.370Z,15.80
2018-06-15T05:20:38.841Z,15.40
2018-06-15T05:23:10.333Z,16.93
2018-06-15T05:25:42.124Z,20.37
2018-06-15T05:28:13.822Z,19.40
2018-06-15T05:30:44.914Z,22.07
2018-06-15T05:33:16.523Z,17.40
2018-06-15T05:35:47.789Z,18.77
2018-06-15T05:38:19.550Z,17.87
2018-06-15T05:40:50.667Z,16.70
2018-06-15T05:43:21.873Z,18.03
2018-06-15T05:45:53.627Z,19.23
2018-06-15T05:48:25.344Z,17.10
2018-06-15T05:50:57.370Z,18.10
2018-06-15T05:53:29.235Z,16.50
2018-06-15T05:56:01.089Z,17.40
2018-06-15T05:58:32.643Z,17.83
2018-06-15T06:01:04.185Z,18.47
2018-06-15T06:03:35.356Z,18.10
2018-06-15T06:06:07.167Z,16.57
2018-06-15T06:08:38.660Z,19.17
2018-06-15T06:11:10.221Z,18.23
2018-06-15T06:13:42.098Z,17.47
2018-06-15T06:16:13.865Z,18.17
2018-06-15T06:18:52.023Z,18.70
2018-06-15T06:21:23.545Z,21.77
2018-06-15T06:23:54.986Z,20.63
2018-06-15T06:26:26.473Z,20.63
2018-06-15T06:28:57.795Z,21.50
2018-06-15T06:31:29.697Z,21.97
2018-06-15T06:34:01.268Z,20.67
2018-06-15T06:36:32.892Z,21.03
2018-06-15T06:39:06.227Z,23.30
2018-06-15T06:41:37.601Z,22.73
2018-06-15T06:44:10.238Z,24.40
2018-06-15T06:46:41.791Z,23.43
2018-06-15T06:49:13.598Z,24.43
2018-06-15T06:51:45.181Z,22.37
2018-06-15T06:54:16.684Z,23.93
2018-06-15T06:56:48.523Z,21.67
2018-06-15T06:59:20.217Z,22.53
2018-06-15T07:01:51.730Z,24.27
2018-06-15T07:04:23.450Z,24.13
2018-06-15T07:06:54.741Z,23.93
2018-06-15T07:09:26.043Z,23.33
2018-06-15T07:11:57.813Z,21.97
2018-06-15T07:14:29.581Z,23.77
2018-06-15T07:17:00.744Z,22.57
2018-06-15T07:19:32.309Z,22.70
2018-06-15T07:22:04.138Z,21.37
2018-06-15T07:24:35.943Z,21.13
2018-06-15T07:27:07.464Z,22.70
2018-06-15T07:29:39.357Z,23.57
2018-06-15T07:32:10.884Z,23.50
2018-06-15T07:34:42.696Z,23.90
2018-06-15T07:37:14.372Z,23.70
2018-06-15T07:39:46.009Z,22.73
2018-06-15T07:42:17.536Z,23.17
2018-06-15T07:44:49.167Z,21.93
2018-06-15T07:47:20.509Z,21.93
2018-06-15T07:49:52.033Z,22.13
2018-06-15T07:52:23.754Z,19.60
2018-06-15T07:54:55.907Z,19.03
2018-06-15T07:57:27.479Z,21.23
2018-06-15T08:00:00.271Z,20.97
2018-06-15T08:02:31.776Z,18.27
2018-06-15T08:05:03.591Z,18.17
2018-06-15T08:07:35.185Z,17.30
2018-06-15T08:10:06.908Z,17.43
2018-06-15T08:12:38.995Z,14.77
2018-06-15T08:15:10.915Z,14.43
2018-06-15T08:17:42.465Z,15.07
2018-06-15T08:20:13.976Z,15.13
2018-06-15T08:22:45.594Z,15.53
2018-06-15T08:25:17.327Z,14.87
2018-06-15T08:27:48.985Z,13.97
2018-06-15T08:30:20.685Z,13.10
2018-06-15T08:32:52.114Z,14.33
2018-06-15T08:35:23.689Z,14.60
2018-06-15T08:37:55.393Z,13.00
2018-06-15T08:40:27.057Z,14.10
2018-06-15T08:42:59.462Z,12.93
2018-06-15T08:45:31.363Z,12.10
2018-06-15T08:48:05.722Z,11.50
2018-06-15T08:50:37.229Z,14.90
2018-06-15T08:53:09.093Z,18.23
2018-06-15T08:55:41.037Z,13.23
2018-06-15T08:58:12.762Z,12.67
2018-06-15T09:00:44.386Z,11.70
2018-06-15T09:03:15.973Z,11.13
2018-06-15T09:05:47.573Z,11.00
2018-06-15T09:08:19.782Z,11.20
2018-06-15T09:10:52.042Z,10.73
2018-06-15T09:13:24.073Z,9.60
2018-06-15T09:15:56.159Z,9.27
2018-06-15T09:18:27.467Z,7.93
2018-06-15T09:20:59.044Z,8.67
2018-06-15T09:23:30.628Z,8.37
2018-06-15T09:26:02.686Z,10.23
2018-06-15T09:28:34.402Z,9.63
2018-06-15T09:31:06.577Z,10.53
2018-06-15T09:33:38.636Z,9.07
2018-06-15T09:36:10.171Z,8.80
2018-06-15T09:38:41.721Z,8.67
2018-06-15T09:41:13.314Z,8.93
2018-06-15T09:43:44.818Z,9.00
2018-06-15T09:46:16.140Z,7.67
2018-06-15T09:48:51.617Z,6.90
2018-06-15T09:51:23.424Z,6.60
2018-06-15T09:53:54.717Z,7.40
2018-06-15T09:56:26.657Z,6.23
2018-06-15T10:03:39.217Z,5.77
2018-06-15T10:06:10.905Z,5.93
2018-06-15T10:08:42.650Z,4.90
2018-06-15T10:11:14.222Z,3.60
2018-06-15T10:13:45.956Z,3.77
2018-06-15T10:16:17.427Z,3.13
2018-06-15T10:18:49.157Z,2.50
2018-06-15T10:21:21.545Z,2.63
2018-06-15T10:23:53.767Z,2.43
2018-06-15T10:26:26.373Z,3.80
2018-06-15T10:28:58.092Z,3.33
2018-06-15T10:31:29.715Z,2.97
2018-06-15T10:34:01.354Z,2.77
2018-06-15T10:36:33.048Z,3.33
2018-06-15T10:39:08.350Z,2.50
2018-06-15T10:41:41.203Z,2.73
2018-06-15T10:44:12.785Z,3.63
2018-06-15T10:46:44.128Z,3.03
2018-06-15T10:49:15.692Z,2.53
2018-06-15T10:51:47.837Z,2.77
2018-06-15T10:54:19.404Z,3.53
2018-06-15T10:56:51.037Z,3.50
2018-06-15T10:59:23.309Z,3.60
2018-06-15T11:01:56.017Z,2.95
2018-06-15T11:04:28.165Z,3.67
2018-06-15T11:07:00.442Z,4.35
2018-06-15T11:09:32.710Z,4.12
2018-06-15T11:12:04.884Z,4.30
2018-06-15T11:14:37.078Z,4.28
2018-06-15T11:17:09.179Z,4.45
2018-06-15T11:19:41.418Z,4.10
2018-06-15T11:22:13.640Z,4.17
2018-06-15T11:24:45.782Z,5.28
2018-06-15T11:27:18.101Z,4.08
2018-06-15T11:29:50.240Z,3.90
2018-06-15T11:32:22.323Z,4.33
2018-06-15T11:34:54.985Z,3.90
2018-06-15T11:37:27.037Z,4.28
2018-06-15T11:39:59.380Z,5.35
2018-06-15T11:42:31.702Z,6.95
2018-06-15T11:45:04.661Z,5.22
2018-06-15T11:47:36.906Z,4.53
2018-06-15T11:50:09.478Z,7.87
2018-06-15T11:52:41.566Z,6.55
2018-06-15T11:55:13.933Z,7.20
2018-06-15T11:57:46.162Z,6.12
2018-06-15T12:00:18.574Z,8.05
2018-06-15T12:02:50.781Z,5.67
2018-06-15T12:05:23.101Z,5.28
2018-06-15T12:07:55.716Z,14.65
2018-06-15T12:10:28.287Z,6.53
2018-06-15T12:13:00.710Z,6.05
2018-06-15T12:15:32.918Z,5.60
2018-06-15T12:18:05.430Z,7.70
2018-06-15T12:20:37.578Z,6.55
2018-06-15T12:23:09.627Z,5.85
2018-06-15T12:25:41.841Z,11.22
2018-06-15T12:28:14.748Z,6.22
2018-06-15T12:30:46.993Z,6.72
2018-06-15T12:33:19.488Z,7.65
2018-06-15T12:35:52.186Z,17.85
2018-06-15T12:38:24.421Z,7.97
2018-06-15T12:40:58.240Z,6.70
2018-06-15T12:43:30.559Z,6.10
2018-06-15T12:46:03.021Z,5.60
2018-06-15T12:48:35.236Z,5.03
2018-06-15T12:51:07.414Z,5.83
2018-06-15T12:53:39.168Z,5.70
2018-06-15T12:56:11.068Z,5.40
2018-06-15T12:58:43.152Z,5.87
2018-06-15T13:01:15.445Z,5.22
2018-06-15T13:03:48.544Z,5.42
2018-06-15T13:06:20.635Z,5.83
2018-06-15T13:08:52.881Z,5.20
2018-06-15T13:11:25.331Z,4.47
2018-06-15T13:13:57.937Z,6.08
2018-06-15T13:16:30.141Z,4.40
2018-06-15T13:19:02.261Z,5.12
2018-06-15T13:21:34.492Z,4.53
2018-06-15T13:24:07.269Z,4.03
2018-06-15T13:26:39.733Z,7.05
2018-06-15T13:29:11.842Z,5.30
2018-06-15T13:31:43.957Z,4.22
2018-06-15T13:34:16.115Z,4.45
2018-06-15T13:36:48.413Z,4.65
2018-06-15T13:39:20.521Z,3.87
2018-06-15T13:41:52.617Z,4.28
2018-06-15T13:44:24.767Z,4.60
2018-06-15T13:46:56.887Z,4.00
2018-06-15T13:49:29.081Z,4.40
2018-06-15T13:52:01.304Z,4.83
2018-06-15T13:54:33.602Z,4.12
2018-06-15T13:57:05.769Z,4.08
2018-06-15T13:59:38.925Z,4.72
2018-06-15T14:02:11.901Z,5.37
2018-06-15T14:04:44.296Z,4.90
2018-06-15T14:07:16.415Z,5.03
2018-06-15T14:09:48.591Z,4.00
2018-06-15T14:12:20.824Z,4.47
2018-06-15T14:14:52.644Z,4.47
2018-06-15T14:17:24.967Z,4.83
2018-06-15T14:19:57.482Z,4.05
2018-06-15T14:22:30.157Z,3.85
2018-06-15T14:25:02.418Z,4.30
2018-06-15T14:27:34.655Z,3.70
2018-06-15T14:30:07.101Z,3.70
2018-06-15T14:32:39.223Z,4.92
2018-06-15T14:35:11.686Z,3.47
2018-06-15T14:37:44.062Z,2.95
2018-06-15T14:40:17.503Z,3.67
2018-06-15T14:42:49.776Z,4.22
2018-06-15T14:45:21.870Z,4.12
2018-06-15T14:47:53.452Z,5.87
2018-06-15T14:50:25.992Z,4.17
2018-06-15T14:52:58.283Z,4.30
2018-06-15T14:55:31.145Z,3.83
2018-06-15T14:58:03.662Z,3.90
2018-06-15T15:00:35.282Z,3.67
2018-06-15T15:03:07.651Z,3.77
2018-06-15T15:05:39.298Z,9.33
2018-06-15T15:08:11.882Z,3.40
2018-06-15T15:10:45.262Z,3.17
2018-06-15T15:13:17.962Z,3.67
2018-06-15T15:15:50.546Z,5.05
2018-06-15T15:18:22.710Z,4.87
2018-06-15T15:20:54.973Z,4.83
2018-06-15T15:23:27.229Z,3.70
2018-06-15T15:25:59.626Z,4.42
2018-06-15T15:28:31.737Z,4.28
2018-06-15T15:31:03.829Z,3.52
2018-06-15T15:33:36.327Z,2.72
2018-06-15T15:36:08.655Z,2.50
2018-06-15T15:38:40.934Z,2.62
2018-06-15T15:41:13.090Z,3.52
2018-06-15T15:43:45.207Z,3.33
2018-06-15T15:46:17.323Z,3.58
2018-06-15T15:48:49.357Z,2.85
2018-06-15T15:51:21.419Z,3.87
2018-06-15T15:53:54.372Z,3.60
2018-06-15T15:56:26.697Z,3.02
2018-06-15T15:58:58.721Z,3.37
2018-06-15T16:01:31.151Z,3.92
2018-06-15T16:04:03.921Z,2.33
2018-06-15T16:06:36.404Z,2.17
2018-06-15T16:09:10.209Z,2.95
2018-06-15T16:11:42.903Z,3.12
2018-06-15T16:14:15.358Z,4.62
2018-06-15T16:16:47.533Z,4.65
2018-06-15T16:19:21.797Z,2.35
2018-06-15T16:21:55.546Z,5.55
2018-06-15T16:24:27.799Z,3.50
2018-06-15T16:27:00.159Z,3.25
2018-06-15T16:29:32.730Z,4.72
2018-06-15T16:32:06.627Z,2.90
2018-06-15T16:34:38.710Z,2.30
2018-06-15T16:37:10.584Z,2.77
2018-06-15T16:39:45.684Z,3.07
2018-06-15T16:42:17.477Z,4.83
2018-06-15T16:44:49.067Z,2.85
2018-06-15T16:47:21.188Z,3.83
2018-06-15T16:49:53.845Z,3.60
2018-06-15T16:52:25.869Z,4.33
2018-06-15T16:54:58.505Z,5.27
2018-06-15T16:57:30.621Z,4.13
2018-06-15T17:00:02.413Z,4.83
2018-06-15T17:02:34.242Z,3.33
2018-06-15T17:05:05.961Z,4.37
2018-06-15T17:07:37.572Z,3.80
2018-06-15T17:10:09.989Z,3.53
2018-06-15T17:12:41.638Z,5.47
2018-06-15T17:15:13.451Z,5.80
2018-06-15T17:17:45.714Z,4.70
2018-06-15T17:20:17.733Z,2.50
2018-06-15T17:22:49.858Z,3.00
2018-06-15T17:25:21.491Z,5.10
2018-06-15T17:27:53.142Z,2.53
2018-06-15T17:30:27.683Z,3.73
2018-06-15T17:32:59.536Z,3.57
2018-06-15T17:35:32.177Z,3.10
2018-06-15T17:38:04.891Z,3.17
2018-06-15T17:40:36.609Z,6.93
2018-06-15T17:43:08.537Z,4.37
2018-06-15T17:45:40.190Z,3.70
2018-06-15T17:48:11.725Z,1.97
2018-06-15T17:50:43.397Z,4.00
2018-06-15T17:53:14.965Z,5.27
2018-06-15T17:55:46.525Z,2.83
2018-06-15T17:58:18.121Z,2.60
2018-06-15T18:00:49.778Z,3.70
2018-06-15T18:03:21.590Z,2.27
2018-06-15T18:05:53.033Z,2.10
2018-06-15T18:08:24.684Z,3.43
2018-06-15T18:10:56.567Z,3.17
2018-06-15T18:13:28.133Z,4.07
2018-06-15T18:15:59.700Z,3.67
2018-06-15T18:18:31.382Z,6.00
2018-06-15T18:21:03.092Z,3.87
2018-06-15T18:23:35.113Z,4.80
2018-06-15T18:26:07.868Z,3.70
2018-06-15T18:28:40.063Z,4.83
2018-06-15T18:31:12.293Z,4.13
2018-06-15T18:33:43.911Z,3.27
2018-06-15T18:36:15.594Z,5.17
2018-06-15T18:38:48.109Z,4.27
2018-06-15T18:41:19.690Z,5.10
2018-06-15T18:43:51.214Z,4.23
2018-06-15T18:46:23.041Z,3.33
2018-06-15T18:48:54.701Z,4.37
2018-06-15T18:51:26.413Z,4.73
2018-06-15T18:53:58.357Z,4.60
2018-06-15T18:56:30.027Z,6.70
2018-06-15T18:59:03.008Z,4.03
2018-06-15T19:01:34.875Z,5.57
2018-06-15T19:04:07.299Z,3.97
2018-06-15T19:06:39.694Z,4.00
2018-06-15T19:09:12.393Z,5.27
2018-06-15T19:11:44.104Z,5.67
2018-06-15T19:14:15.703Z,3.67
2018-06-15T19:16:48.054Z,4.33
2018-06-15T19:19:19.941Z,6.13
2018-06-15T19:21:52.330Z,3.70
2018-06-15T19:24:24.024Z,3.40
2018-06-15T19:26:55.614Z,4.33
2018-06-15T19:29:27.637Z,4.03
2018-06-15T19:31:59.735Z,3.90
2018-06-15T19:34:31.552Z,4.60
2018-06-15T19:37:04.403Z,4.37
2018-06-15T19:39:36.334Z,4.13
2018-06-15T19:42:07.804Z,5.33
2018-06-15T19:44:39.423Z,4.33
2018-06-15T19:47:11.429Z,4.77
2018-06-15T19:49:43.071Z,5.57
2018-06-15T19:52:15.347Z,6.10
2018-06-15T19:54:47.159Z,3.93
2018-06-15T19:57:19.106Z,4.93
2018-06-15T19:59:51.604Z,4.53
2018-06-15T20:02:23.387Z,5.53
2018-06-15T20:04:54.891Z,5.13
2018-06-15T20:07:26.994Z,4.97
2018-06-15T20:09:59.001Z,6.10
2018-06-15T20:12:31.294Z,4.83
2018-06-15T20:15:03.157Z,4.17
2018-06-15T20:17:34.478Z,6.17
2018-06-15T20:20:07.754Z,4.87
2018-06-15T20:22:39.727Z,4.47
2018-06-15T20:25:12.884Z,5.90
2018-06-15T20:27:45.142Z,4.93
2018-06-15T20:30:17.428Z,5.90
2018-06-15T20:32:49.490Z,5.70
2018-06-15T20:35:21.327Z,4.80
2018-06-15T20:37:53.189Z,5.73
2018-06-15T20:40:25.206Z,3.73
2018-06-15T20:42:57.319Z,5.43
2018-06-15T20:45:29.474Z,4.73
2018-06-15T20:48:01.404Z,4.17
2018-06-15T20:50:33.031Z,4.80
2018-06-15T20:53:05.592Z,4.77
2018-06-15T20:55:37.492Z,4.13
2018-06-15T20:58:09.038Z,4.90
2018-06-15T21:00:41.943Z,4.93
2018-06-15T21:03:15.761Z,4.87
2018-06-15T21:05:47.831Z,5.93
2018-06-15T21:08:19.775Z,6.03
2018-06-15T21:10:51.446Z,3.77
2018-06-15T21:13:23.262Z,7.30
2018-06-15T21:15:55.067Z,6.37
2018-06-15T21:18:27.157Z,6.27
2018-06-15T21:20:58.759Z,4.60
2018-06-15T21:23:30.390Z,5.67
2018-06-15T21:26:02.668Z,6.03
2018-06-15T21:28:34.258Z,4.70
2018-06-15T21:31:05.863Z,6.27
2018-06-15T21:33:38.137Z,7.17
2018-06-15T21:36:10.041Z,5.07
2018-06-15T21:38:41.991Z,4.50
2018-06-15T21:41:13.596Z,5.03
2018-06-15T21:43:45.258Z,6.60
2018-06-15T21:46:17.737Z,4.83
2018-06-15T21:48:49.212Z,5.60
2018-06-15T21:51:21.278Z,4.90
2018-06-15T21:53:52.984Z,5.40
2018-06-15T21:56:24.884Z,5.37
2018-06-15T21:58:56.542Z,3.63
2018-06-15T22:01:30.058Z,4.80
2018-06-15T22:04:01.967Z,3.97
2018-06-15T22:06:33.882Z,6.07
2018-06-15T22:09:08.448Z,7.40
2018-06-15T22:11:40.821Z,3.13
2018-06-15T22:14:15.616Z,4.27
2018-06-15T22:16:52.555Z,4.43
2018-06-15T22:19:25.002Z,3.17
2018-06-15T22:21:57.574Z,5.67
2018-06-15T22:24:29.401Z,4.63
2018-06-15T22:27:00.990Z,4.33
2018-06-15T22:29:32.723Z,3.23
2018-06-15T22:32:04.304Z,3.17
2018-06-15T22:34:36.326Z,3.60
2018-06-15T22:37:07.805Z,4.13
2018-06-15T22:39:39.724Z,4.77
2018-06-15T22:42:11.307Z,5.30
2018-06-15T22:44:43.006Z,3.80
2018-06-15T22:47:14.618Z,5.03
2018-06-15T22:49:46.585Z,5.20
2018-06-15T22:52:18.138Z,5.33
2018-06-15T22:54:49.947Z,4.83
2018-06-15T22:57:22.035Z,5.40
2018-06-15T22:59:53.929Z,6.13
2018-06-15T23:02:26.309Z,5.57
2018-06-15T23:04:58.115Z,5.47
2018-06-15T23:07:29.942Z,4.30
2018-06-15T23:10:01.614Z,3.77
2018-06-15T23:12:33.362Z,4.03
2018-06-15T23:15:04.632Z,4.10
2018-06-15T23:17:37.065Z,3.13
2018-06-15T23:20:08.988Z,6.40
2018-06-15T23:22:40.564Z,6.83
2018-06-15T23:25:12.117Z,4.33
2018-06-15T23:27:43.831Z,5.10
2018-06-15T23:30:15.294Z,5.33
2018-06-15T23:32:47.180Z,4.77
2018-06-15T23:35:22.938Z,3.97
2018-06-15T23:37:54.636Z,6.40
2018-06-15T23:40:26.212Z,4.37
2018-06-15T23:42:57.830Z,4.57
2018-06-15T23:45:29.567Z,4.53
2018-06-15T23:48:01.756Z,5.00
2018-06-15T23:50:33.285Z,4.73
2018-06-15T23:53:05.297Z,3.53
2018-06-15T23:55:36.996Z,3.67
2018-06-15T23:58:08.647Z,3.50
